Time;durP1;ratioP1;P1;durP2;ratioP2;P2;SDS_P1;SDS_P2;PMS_P1;PMS_P2;Temp;Humidity;BMP_temperature;BMP_pressure;BME280_temperature;BME280_humidity;BME280_pressure;Samples;Min_cycle;Max_cycle;Signal;HPM_P1;HPM_P2
2023/08/07 00:02:03;;;;;;;4.03;2.30;;;15.70;99.90;;;;;;10448614;28;20254;-80
2023/08/07 00:07:07;;;;;;;2.87;2.63;;;15.70;99.90;;;;;;10440928;28;20210;-80
2023/08/07 00:12:10;;;;;;;2.73;2.60;;;15.70;99.90;;;;;;10434182;28;20579;-80
2023/08/07 00:17:12;;;;;;;2.90;2.70;;;15.70;99.90;;;;;;10446197;28;20226;-80
2023/08/07 00:22:15;;;;;;;3.50;2.53;;;15.70;99.90;;;;;;10448305;28;20602;-80
2023/08/07 00:27:17;;;;;;;2.90;2.60;;;15.70;99.90;;;;;;10440176;28;20263;-80
2023/08/07 00:32:20;;;;;;;2.90;2.70;;;15.80;99.90;;;;;;10436264;28;20643;-80
2023/08/07 00:37:23;;;;;;;2.10;2.00;;;15.80;99.90;;;;;;10461120;28;20760;-82
2023/08/07 00:42:25;;;;;;;2.67;2.47;;;15.80;99.90;;;;;;10428437;28;20237;-80
2023/08/07 00:47:29;;;;;;;3.07;2.80;;;15.80;99.90;;;;;;10434627;28;20210;-80
2023/08/07 00:52:33;;;;;;;2.77;2.60;;;15.80;99.90;;;;;;10443825;28;20218;-80
2023/08/07 00:57:35;;;;;;;4.03;2.83;;;15.80;99.90;;;;;;10444545;28;20638;-81
2023/08/07 01:02:37;;;;;;;2.53;2.30;;;15.90;99.90;;;;;;10437998;28;20229;-80
2023/08/07 01:07:40;;;;;;;3.17;2.30;;;15.90;99.90;;;;;;10448938;28;20262;-80
2023/08/07 01:12:53;;;;;;;2.60;2.40;;;15.90;99.90;;;;;;10443492;28;20544;-80
2023/08/07 01:17:56;;;;;;;3.80;2.87;;;15.90;99.90;;;;;;10452089;28;20244;-80
2023/08/07 01:23:00;;;;;;;2.30;2.20;;;15.90;99.90;;;;;;10440827;28;20225;-80
2023/08/07 01:28:07;;;;;;;13.17;3.90;;;15.90;99.90;;;;;;10439451;28;20416;-80
2023/08/07 01:33:15;;;;;;;3.27;2.90;;;15.90;99.90;;;;;;10427489;28;20230;-80
2023/08/07 01:38:21;;;;;;;3.87;2.47;;;15.90;99.90;;;;;;10440435;28;20272;-80
2023/08/07 01:43:23;;;;;;;2.63;2.43;;;15.90;99.90;;;;;;10427523;28;20305;-80
2023/08/07 01:48:25;;;;;;;2.70;2.50;;;16.00;99.90;;;;;;10437285;28;20217;-80
2023/08/07 01:53:28;;;;;;;2.63;2.43;;;15.90;99.90;;;;;;10436480;28;20215;-80
2023/08/07 01:58:30;;;;;;;2.40;2.30;;;15.90;99.90;;;;;;10438171;28;20233;-80
2023/08/07 02:03:32;;;;;;;3.27;2.57;;;15.90;99.90;;;;;;10446352;28;20237;-80
2023/08/07 02:08:36;;;;;;;3.00;2.80;;;15.90;99.90;;;;;;10429164;28;20624;-80
2023/08/07 02:13:39;;;;;;;2.47;2.20;;;15.90;99.90;;;;;;10443626;28;20222;-80
2023/08/07 02:18:41;;;;;;;3.27;2.47;;;15.90;99.90;;;;;;10443163;28;20644;-81
2023/08/07 02:23:44;;;;;;;2.90;2.40;;;15.90;99.90;;;;;;10428855;28;20222;-80
2023/08/07 02:28:46;;;;;;;2.60;2.40;;;15.90;99.90;;;;;;10439911;28;20194;-80
2023/08/07 02:33:49;;;;;;;3.43;3.13;;;15.90;99.90;;;;;;10440004;28;20233;-80
2023/08/07 02:38:53;;;;;;;2.67;2.50;;;15.90;99.90;;;;;;10430125;28;20279;-80
2023/08/07 02:43:56;;;;;;;2.43;2.27;;;15.90;99.90;;;;;;10440664;28;20229;-80
2023/08/07 02:48:58;;;;;;;3.33;2.93;;;15.90;99.90;;;;;;10439044;28;20222;-80
2023/08/07 02:54:02;;;;;;;3.40;3.20;;;15.90;99.90;;;;;;10431183;28;20276;-80
2023/08/07 02:59:05;;;;;;;3.63;3.33;;;15.80;99.80;;;;;;10430822;28;20202;-80
2023/08/07 03:04:07;;;;;;;3.10;2.60;;;15.70;99.40;;;;;;10433874;28;20731;-80
2023/08/07 03:09:11;;;;;;;2.70;2.50;;;15.70;99.50;;;;;;10438696;28;20650;-80
2023/08/07 03:14:13;;;;;;;2.90;2.70;;;15.60;99.50;;;;;;10421707;28;20223;-80
2023/08/07 03:19:15;;;;;;;4.80;2.87;;;15.60;99.20;;;;;;10426827;28;20229;-81
2023/08/07 03:24:18;;;;;;;3.27;2.97;;;15.50;99.30;;;;;;10427400;28;20808;-80
2023/08/07 03:29:20;;;;;;;4.30;2.97;;;15.50;98.80;;;;;;10454219;28;20259;-80
2023/08/07 03:34:23;;;;;;;3.20;3.00;;;15.40;99.00;;;;;;10448783;28;20218;-80
2023/08/07 03:39:27;;;;;;;2.37;2.20;;;15.40;99.60;;;;;;10419485;28;20214;-80
2023/08/07 03:44:29;;;;;;;3.10;2.80;;;15.40;99.50;;;;;;10444908;28;20190;-80
2023/08/07 03:49:31;;;;;;;3.40;3.07;;;15.50;99.30;;;;;;10448809;28;20713;-80
2023/08/07 03:54:34;;;;;;;3.73;2.90;;;15.50;99.10;;;;;;10421009;28;20253;-80
2023/08/07 03:59:36;;;;;;;4.87;2.83;;;15.40;99.00;;;;;;10444896;28;20195;-80
2023/08/07 04:04:38;;;;;;;4.97;3.00;;;15.40;99.50;;;;;;10449444;28;20226;-80
2023/08/07 04:09:42;;;;;;;4.90;3.33;;;15.40;99.20;;;;;;10423592;28;20227;-80
2023/08/07 04:14:44;;;;;;;3.13;2.83;;;15.40;99.00;;;;;;10442672;28;20241;-80
2023/08/07 04:19:46;;;;;;;4.43;2.63;;;15.30;99.20;;;;;;10446074;28;20219;-80
2023/08/07 04:24:49;;;;;;;3.57;2.80;;;15.40;99.30;;;;;;10444576;28;20731;-80
2023/08/07 04:34:57;;;;;;;3.53;2.90;;;15.40;99.30;;;;;;10434606;28;20308;-85
2023/08/07 04:40:01;;;;;;;3.20;3.00;;;15.40;99.70;;;;;;10444490;28;20206;-83
2023/08/07 04:45:04;;;;;;;3.10;2.80;;;15.40;99.10;;;;;;10434230;28;20254;-82
2023/08/07 04:50:06;;;;;;;2.93;2.57;;;15.50;99.00;;;;;;10445330;28;20220;-85
2023/08/07 04:55:10;;;;;;;2.87;2.67;;;15.50;98.80;;;;;;10415042;28;20219;-83
2023/08/07 05:00:13;;;;;;;3.03;2.83;;;15.50;99.30;;;;;;10422725;28;20286;-84
2023/08/07 05:05:16;;;;;;;2.73;2.57;;;15.60;99.40;;;;;;10442865;28;20205;-83
2023/08/07 05:10:19;;;;;;;17.17;10.37;;;15.60;98.80;;;;;;10427326;28;20246;-84
2023/08/07 05:15:22;;;;;;;4.27;2.80;;;15.70;98.70;;;;;;10435541;28;20211;-83
2023/08/07 05:20:24;;;;;;;2.77;2.50;;;15.80;98.80;;;;;;10409131;28;20727;-83
2023/08/07 05:25:27;;;;;;;2.60;2.40;;;15.80;98.90;;;;;;10431423;28;20213;-83
2023/08/07 05:30:29;;;;;;;3.50;2.50;;;15.80;98.60;;;;;;10416191;28;20769;-84
2023/08/07 05:35:31;;;;;;;2.70;2.47;;;15.90;98.80;;;;;;10409969;28;20234;-83
2023/08/07 05:40:36;;;;;;;2.70;2.53;;;15.90;98.70;;;;;;10423493;28;20223;-84
2023/08/07 05:45:38;;;;;;;2.70;2.27;;;16.00;98.80;;;;;;10429041;28;20201;-83
2023/08/07 05:50:40;;;;;;;3.97;2.70;;;16.00;99.10;;;;;;10432858;28;20894;-84
2023/08/07 05:55:43;;;;;;;4.33;2.20;;;16.20;99.10;;;;;;10430174;28;20223;-84
2023/08/07 06:00:46;;;;;;;2.60;2.30;;;16.30;98.40;;;;;;10399315;28;20650;-84
2023/08/07 06:05:48;;;;;;;4.73;2.50;;;16.40;98.70;;;;;;10402639;28;20205;-84
2023/08/07 06:10:51;;;;;;;3.67;2.73;;;16.50;97.30;;;;;;10416074;28;20223;-84
2023/08/07 06:15:54;;;;;;;2.57;2.37;;;16.50;97.60;;;;;;10417338;28;20246;-85
2023/08/07 06:20:57;;;;;;;2.80;2.10;;;16.60;97.40;;;;;;10411108;28;20600;-81
2023/08/07 06:26:03;;;;;;;5.97;2.60;;;16.70;97.00;;;;;;10459862;28;20546;-85
2023/08/07 06:31:07;;;;;;;2.60;2.40;;;16.80;97.30;;;;;;10424387;28;20239;-84
2023/08/07 06:36:09;;;;;;;3.50;2.80;;;16.80;97.10;;;;;;10408871;28;20310;-84
2023/08/07 06:41:13;;;;;;;2.20;2.10;;;16.80;97.30;;;;;;10434662;28;20656;-85
2023/08/07 06:46:15;;;;;;;3.10;2.40;;;16.90;97.30;;;;;;10421600;28;20209;-83
2023/08/07 06:51:18;;;;;;;3.63;2.50;;;17.00;97.20;;;;;;10411102;28;20234;-84
2023/08/07 06:56:21;;;;;;;3.83;2.27;;;17.10;97.30;;;;;;10409274;28;20252;-83
2023/08/07 07:01:23;;;;;;;2.57;2.20;;;17.20;97.20;;;;;;10415889;28;20310;-84
2023/08/07 07:06:26;;;;;;;5.70;2.50;;;17.40;96.80;;;;;;10428764;28;20229;-85
2023/08/07 07:11:29;;;;;;;4.93;2.27;;;17.70;96.30;;;;;;10434667;28;20242;-84
2023/08/07 07:16:32;;;;;;;2.10;2.00;;;17.80;96.30;;;;;;10419109;28;20226;-84
2023/08/07 07:21:34;;;;;;;6.20;2.00;;;17.90;95.40;;;;;;10394710;28;20230;-83
2023/08/07 07:26:38;;;;;;;2.17;1.97;;;18.00;95.10;;;;;;10427480;28;20252;-85
2023/08/07 07:31:40;;;;;;;3.03;2.20;;;18.00;94.60;;;;;;10445382;28;20293;-83
2023/08/07 07:36:42;;;;;;;2.10;1.90;;;18.00;94.90;;;;;;10404984;28;20229;-85
2023/08/07 07:41:45;;;;;;;9.90;1.90;;;18.00;94.90;;;;;;10408861;28;20233;-84
2023/08/07 07:46:47;;;;;;;2.80;1.90;;;18.00;95.50;;;;;;10409615;28;20315;-84
2023/08/07 07:51:50;;;;;;;2.13;1.97;;;18.10;95.90;;;;;;10421925;28;20245;-84
2023/08/07 07:56:53;;;;;;;2.03;1.93;;;18.30;95.00;;;;;;10466427;28;20223;-83
2023/08/07 08:01:55;;;;;;;1.83;1.70;;;18.50;94.90;;;;;;10430643;28;20317;-84
2023/08/07 08:06:59;;;;;;;3.93;2.10;;;18.60;94.00;;;;;;10424436;28;20203;-84
2023/08/07 08:12:03;;;;;;;2.37;1.70;;;18.70;93.80;;;;;;10403522;28;20272;-84
2023/08/07 08:17:05;;;;;;;2.33;1.70;;;18.70;91.90;;;;;;10426402;28;20222;-84
2023/08/07 08:22:07;;;;;;;1.77;1.63;;;18.50;91.20;;;;;;10422451;28;20315;-83
2023/08/07 08:27:11;;;;;;;1.80;1.70;;;18.40;91.80;;;;;;10399790;28;20250;-84
2023/08/07 08:32:13;;;;;;;2.50;2.10;;;18.30;91.80;;;;;;10414071;28;20231;-84
2023/08/07 08:37:15;;;;;;;2.40;2.20;;;18.30;92.50;;;;;;10415557;28;20232;-84
2023/08/07 08:42:20;;;;;;;2.40;2.00;;;18.70;92.50;;;;;;10409012;28;20211;-83
2023/08/07 08:47:23;;;;;;;1.90;1.80;;;19.10;92.60;;;;;;10427033;28;20195;-85
2023/08/07 08:52:25;;;;;;;2.23;2.10;;;19.50;91.60;;;;;;10461793;28;20223;-84
2023/08/07 08:57:29;;;;;;;3.97;1.90;;;19.80;90.20;;;;;;10411031;28;20273;-84
2023/08/07 09:02:32;;;;;;;1.47;1.30;;;20.20;87.20;;;;;;10416279;28;20234;-85
2023/08/07 09:07:35;;;;;;;1.87;1.77;;;20.50;86.20;;;;;;10430304;28;20203;-85
2023/08/07 09:12:41;;;;;;;2.40;2.10;;;20.80;87.70;;;;;;10425329;28;20223;-84
2023/08/07 09:17:46;;;;;;;4.70;4.03;;;21.10;86.60;;;;;;10431571;28;20226;-84
2023/08/07 09:22:48;;;;;;;3.03;2.00;;;21.40;86.20;;;;;;10429811;28;20229;-84
2023/08/07 09:27:52;;;;;;;1.60;1.50;;;21.40;84.80;;;;;;10405673;28;20227;-84
2023/08/07 09:32:54;;;;;;;1.80;1.70;;;21.20;80.90;;;;;;10408075;28;20313;-83
2023/08/07 09:37:57;;;;;;;1.67;1.57;;;20.90;83.60;;;;;;10444328;28;20230;-84
2023/08/07 09:43:02;;;;;;;7.87;1.83;;;20.60;80.00;;;;;;10431278;28;20229;-84
2023/08/07 09:48:06;;;;;;;2.87;1.83;;;20.40;82.90;;;;;;10404518;28;20268;-84
2023/08/07 09:53:10;;;;;;;6.07;1.80;;;20.70;82.10;;;;;;10411654;28;20223;-84
2023/08/07 09:58:14;;;;;;;3.93;1.90;;;21.00;84.30;;;;;;10413841;28;20225;-84
2023/08/07 10:03:17;;;;;;;2.00;1.80;;;21.40;84.20;;;;;;10423157;28;20218;-84
2023/08/07 10:08:19;;;;;;;1.40;1.30;;;21.80;82.60;;;;;;10415358;28;20215;-84
2023/08/07 10:13:24;;;;;;;2.33;1.80;;;21.90;79.60;;;;;;10418127;28;20253;-85
2023/08/07 10:18:26;;;;;;;1.53;1.43;;;22.30;80.00;;;;;;10412025;28;20230;-85
2023/08/07 10:23:28;;;;;;;4.53;1.70;;;22.80;81.60;;;;;;10416232;28;20225;-85
2023/08/07 10:28:37;;;;;;;1.70;1.60;;;23.20;78.00;;;;;;10435233;28;20195;-85
2023/08/07 10:33:51;;;;;;;1.97;1.67;;;23.10;75.10;;;;;;10499248;22;20230;-82
2023/08/07 10:39:14;;;;;;;2.67;1.70;;;22.70;73.70;;;;;;10439710;28;20591;-80
2023/08/07 10:44:30;;;;;;;2.20;2.10;;;22.20;76.40;;;;;;10445137;28;20224;-82
2023/08/07 10:49:35;;;;;;;7.33;2.27;;;21.70;75.70;;;;;;10426383;28;20274;-81
2023/08/07 10:54:49;;;;;;;2.17;2.07;;;21.50;76.10;;;;;;10440415;28;20232;-82
2023/08/07 11:00:09;;;;;;;2.10;1.90;;;21.20;76.40;;;;;;10434724;28;20596;-81
2023/08/07 11:05:13;;;;;;;3.03;2.10;;;20.90;77.80;;;;;;10440957;28;20888;-82
2023/08/07 11:10:16;;;;;;;5.63;2.10;;;20.90;76.40;;;;;;10425807;28;20201;-81
2023/08/07 11:15:21;;;;;;;2.07;1.97;;;20.90;76.90;;;;;;10445638;28;20245;-81
2023/08/07 11:20:24;;;;;;;2.10;2.00;;;20.80;76.00;;;;;;10419569;28;20227;-80
2023/08/07 11:25:30;;;;;;;3.40;2.60;;;20.70;77.70;;;;;;10424560;28;20212;-83
2023/08/07 11:30:35;;;;;;;2.70;1.87;;;20.60;78.10;;;;;;10435461;28;20194;-83
2023/08/07 11:35:46;;;;;;;2.57;2.37;;;20.50;78.40;;;;;;10433030;28;20413;-83
2023/08/07 11:41:01;;;;;;;5.60;2.37;;;20.50;79.70;;;;;;10425001;28;20246;-83
2023/08/07 11:46:05;;;;;;;2.17;1.83;;;20.40;82.50;;;;;;10393152;28;20198;-82
2023/08/07 11:51:08;;;;;;;3.80;2.60;;;20.20;79.70;;;;;;10428748;28;20758;-83
2023/08/07 11:56:14;;;;;;;11.80;2.37;;;19.90;83.40;;;;;;10450027;28;20295;-82
2023/08/07 12:01:19;;;;;;;3.80;2.30;;;19.80;82.80;;;;;;10447859;28;20234;-82
2023/08/07 12:06:22;;;;;;;2.37;2.27;;;19.60;80.60;;;;;;10441840;28;20609;-82
2023/08/07 12:11:25;;;;;;;2.53;2.33;;;19.40;82.60;;;;;;10459488;28;20253;-82
2023/08/07 12:16:34;;;;;;;8.43;2.13;;;19.30;86.20;;;;;;10424044;28;20253;-82
2023/08/07 12:21:39;;;;;;;3.13;2.93;;;19.50;85.70;;;;;;10438236;28;20218;-81
2023/08/07 12:26:41;;;;;;;4.33;2.70;;;19.50;86.70;;;;;;10441322;28;20186;-81
2023/08/07 12:31:44;;;;;;;2.07;1.97;;;19.60;90.60;;;;;;10433500;28;20226;-81
2023/08/07 12:36:47;;;;;;;3.00;2.67;;;19.70;92.10;;;;;;10449009;28;20252;-82
2023/08/07 12:41:49;;;;;;;4.17;3.13;;;19.80;91.00;;;;;;10414959;28;20701;-80
2023/08/07 12:46:53;;;;;;;2.63;2.43;;;20.00;90.80;;;;;;10439257;28;20556;-82
2023/08/07 12:51:58;;;;;;;2.90;2.07;;;20.20;91.10;;;;;;10443448;28;20736;-81
2023/08/07 12:57:00;;;;;;;2.17;1.97;;;20.30;90.30;;;;;;10447233;28;20611;-81
2023/08/07 13:02:04;;;;;;;2.40;2.20;;;20.50;89.20;;;;;;10450976;28;20233;-81
2023/08/07 13:07:07;;;;;;;2.27;2.17;;;20.60;89.40;;;;;;10437693;28;20237;-83
2023/08/07 13:12:09;;;;;;;2.20;2.03;;;20.60;86.90;;;;;;10444682;28;20249;-82
2023/08/07 13:17:12;;;;;;;2.23;2.03;;;20.60;88.20;;;;;;10435399;28;20723;-81
2023/08/07 13:22:14;;;;;;;2.93;2.10;;;20.60;87.10;;;;;;10411042;28;20588;-81
2023/08/07 13:27:17;;;;;;;2.07;1.97;;;20.50;86.40;;;;;;10417851;28;20216;-82
2023/08/07 13:32:20;;;;;;;2.13;2.00;;;20.40;86.20;;;;;;10430916;28;20241;-81
2023/08/07 13:37:22;;;;;;;2.60;2.33;;;20.30;87.80;;;;;;10442246;28;20214;-81
2023/08/07 13:42:26;;;;;;;6.20;2.70;;;20.30;87.20;;;;;;10421029;28;20234;-81
2023/08/07 13:47:29;;;;;;;1.90;1.80;;;20.40;85.90;;;;;;10440794;28;20222;-82
2023/08/07 13:52:31;;;;;;;3.20;2.13;;;20.60;87.00;;;;;;10433078;28;20228;-81
2023/08/07 13:57:34;;;;;;;5.13;2.20;;;20.70;87.00;;;;;;10445861;28;20312;-81
2023/08/07 14:02:37;;;;;;;2.17;1.93;;;20.70;86.20;;;;;;10443930;28;20689;-82
2023/08/07 14:07:40;;;;;;;2.37;2.13;;;20.70;86.20;;;;;;10449606;28;20202;-81
2023/08/07 14:12:42;;;;;;;2.00;1.90;;;20.70;86.90;;;;;;10418170;28;20302;-81
2023/08/07 14:17:45;;;;;;;3.67;2.33;;;20.70;85.70;;;;;;10425538;28;20246;-81
2023/08/07 14:22:48;;;;;;;2.90;2.70;;;20.60;85.30;;;;;;10440071;28;20221;-82
2023/08/07 14:27:50;;;;;;;3.50;2.27;;;20.70;83.90;;;;;;10437997;28;20201;-82
2023/08/07 14:32:56;;;;;;;2.30;2.20;;;20.60;85.40;;;;;;10438031;28;20229;-83
2023/08/07 14:37:58;;;;;;;3.27;2.97;;;20.50;85.10;;;;;;10438782;28;20250;-83
2023/08/07 14:43:00;;;;;;;3.40;1.97;;;20.40;82.20;;;;;;10458835;28;20228;-83
2023/08/07 14:48:03;;;;;;;3.03;2.10;;;20.20;85.00;;;;;;10431179;28;20661;-81
2023/08/07 14:53:06;;;;;;;2.13;2.03;;;20.30;85.50;;;;;;10440242;28;20713;-82
2023/08/07 14:58:08;;;;;;;2.40;2.13;;;20.30;84.60;;;;;;10430525;28;20292;-82
2023/08/07 15:03:11;;;;;;;2.00;1.90;;;20.40;83.80;;;;;;10434827;28;20637;-82
2023/08/07 15:08:13;;;;;;;5.80;2.73;;;20.30;84.10;;;;;;10440217;28;20225;-82
2023/08/07 15:13:15;;;;;;;2.53;2.33;;;20.30;83.60;;;;;;10412263;28;20214;-81
2023/08/07 15:18:19;;;;;;;2.80;2.60;;;20.30;83.30;;;;;;10415940;28;20305;-82
2023/08/07 15:23:21;;;;;;;9.93;2.67;;;20.40;83.10;;;;;;10417289;28;20723;-81
2023/08/07 15:28:24;;;;;;;7.07;2.83;;;20.40;83.60;;;;;;10413235;28;20199;-81
2023/08/07 15:33:27;;;;;;;2.53;2.33;;;20.40;83.80;;;;;;10445135;28;20225;-82
2023/08/07 15:38:29;;;;;;;2.60;2.40;;;20.30;84.30;;;;;;10427525;28;20262;-82
2023/08/07 15:43:32;;;;;;;2.63;2.27;;;20.30;86.00;;;;;;10448932;28;20210;-82
2023/08/07 15:48:35;;;;;;;2.50;1.97;;;20.30;87.40;;;;;;10425734;28;20210;-81
2023/08/07 15:53:37;;;;;;;3.10;2.80;;;20.40;83.20;;;;;;10446325;28;20804;-82
2023/08/07 15:58:39;;;;;;;2.73;2.17;;;20.50;85.30;;;;;;10426628;28;20233;-82
2023/08/07 16:03:43;;;;;;;2.90;2.67;;;20.50;87.70;;;;;;10444293;28;20233;-82
2023/08/07 16:08:45;;;;;;;3.47;2.33;;;20.60;85.70;;;;;;10446269;28;20245;-82
2023/08/07 16:13:48;;;;;;;2.57;2.33;;;20.60;85.70;;;;;;10446042;28;20229;-82
2023/08/07 16:18:52;;;;;;;3.07;2.10;;;20.50;84.90;;;;;;10446385;28;20222;-81
2023/08/07 16:23:54;;;;;;;3.70;2.17;;;20.30;86.20;;;;;;10444791;28;20225;-81
2023/08/07 16:28:56;;;;;;;2.90;1.90;;;20.30;84.70;;;;;;10448321;28;20205;-81
2023/08/07 16:33:59;;;;;;;2.10;2.00;;;20.20;85.20;;;;;;10452814;22;20288;-83
2023/08/07 16:39:02;;;;;;;2.30;2.10;;;20.00;88.30;;;;;;10429314;28;20245;-83
2023/08/07 16:44:04;;;;;;;2.17;1.97;;;19.90;87.90;;;;;;10447740;28;20213;-82
2023/08/07 16:49:07;;;;;;;2.40;2.20;;;19.90;85.70;;;;;;10430276;28;20198;-82
2023/08/07 16:54:10;;;;;;;2.10;2.00;;;19.80;88.10;;;;;;10437657;28;20237;-82
2023/08/07 16:59:12;;;;;;;3.87;2.00;;;19.70;87.90;;;;;;10424922;28;20317;-82
2023/08/07 17:04:15;;;;;;;2.80;2.13;;;19.70;87.80;;;;;;10437000;28;20217;-85
2023/08/07 17:09:19;;;;;;;3.60;1.97;;;19.70;86.90;;;;;;10449845;28;20195;-82
2023/08/07 17:14:21;;;;;;;2.20;2.00;;;19.80;86.80;;;;;;10443286;28;20218;-83
2023/08/07 17:19:25;;;;;;;2.10;2.00;;;19.80;87.90;;;;;;10445948;28;20763;-82
2023/08/07 17:24:27;;;;;;;2.73;2.07;;;19.90;88.20;;;;;;10443101;28;20675;-82
2023/08/07 17:29:29;;;;;;;2.57;1.57;;;19.90;88.60;;;;;;10445653;28;20194;-83
2023/08/07 17:34:32;;;;;;;2.97;1.83;;;19.80;88.10;;;;;;10443980;28;20238;-82
2023/08/07 17:39:34;;;;;;;2.80;2.57;;;19.80;87.50;;;;;;10443960;28;20301;-82
2023/08/07 17:44:37;;;;;;;2.43;2.20;;;19.80;88.90;;;;;;10441677;28;20226;-82
2023/08/07 17:49:42;;;;;;;3.67;2.27;;;19.80;89.40;;;;;;10441564;28;20700;-82
2023/08/07 17:54:46;;;;;;;2.80;2.60;;;19.80;89.20;;;;;;10444106;28;20249;-83
2023/08/07 17:59:50;;;;;;;2.77;2.40;;;19.80;88.20;;;;;;10422933;28;20238;-83
2023/08/07 18:04:54;;;;;;;2.17;1.90;;;19.80;89.30;;;;;;10421484;28;20507;-82
2023/08/07 18:09:56;;;;;;;1.80;1.70;;;19.60;90.00;;;;;;10442886;28;20242;-83
2023/08/07 18:14:58;;;;;;;4.50;2.30;;;19.50;89.70;;;;;;10440343;28;20262;-84
2023/08/07 18:20:04;;;;;;;2.40;2.30;;;19.40;90.10;;;;;;10440224;28;20218;-83
2023/08/07 18:25:07;;;;;;;7.57;6.73;;;19.30;90.20;;;;;;10435820;28;20240;-84
2023/08/07 18:30:11;;;;;;;3.40;3.10;;;19.20;90.90;;;;;;10443501;28;20306;-84
2023/08/07 18:35:15;;;;;;;2.60;2.40;;;19.10;90.70;;;;;;10431238;28;20230;-83
2023/08/07 18:40:17;;;;;;;2.40;2.20;;;19.00;92.00;;;;;;10445385;28;20233;-84
2023/08/07 18:45:19;;;;;;;2.10;2.00;;;19.00;91.60;;;;;;10449952;28;20268;-84
2023/08/07 18:50:23;;;;;;;2.20;2.00;;;18.90;92.00;;;;;;10438257;28;20219;-84
2023/08/07 18:55:25;;;;;;;3.10;2.30;;;18.80;91.40;;;;;;10445186;28;20701;-84
2023/08/07 19:00:27;;;;;;;2.70;2.03;;;18.70;91.40;;;;;;10436548;28;20238;-83
2023/08/07 19:05:31;;;;;;;2.87;2.67;;;18.70;92.00;;;;;;10438144;28;20222;-83
2023/08/07 19:10:33;;;;;;;2.17;2.07;;;18.60;91.90;;;;;;10441950;28;20206;-84
2023/08/07 19:15:35;;;;;;;2.30;2.10;;;18.60;92.00;;;;;;10422054;28;20285;-84
2023/08/07 19:20:39;;;;;;;2.17;2.00;;;18.50;92.10;;;;;;10441957;28;20210;-84
2023/08/07 19:25:41;;;;;;;2.77;2.53;;;18.50;92.70;;;;;;10444111;28;20218;-84
2023/08/07 19:30:43;;;;;;;3.60;2.77;;;18.50;92.10;;;;;;10441826;28;20195;-84
2023/08/07 19:35:47;;;;;;;2.43;2.33;;;18.40;91.80;;;;;;10439373;28;20266;-83
2023/08/07 19:40:49;;;;;;;3.83;3.33;;;18.30;91.70;;;;;;10402490;28;20600;-84
2023/08/07 19:45:51;;;;;;;2.63;2.40;;;18.30;91.70;;;;;;10454353;28;20209;-84
2023/08/07 19:50:55;;;;;;;2.10;2.00;;;18.30;92.00;;;;;;10443383;28;20196;-83
2023/08/07 19:55:57;;;;;;;2.37;2.27;;;18.20;92.40;;;;;;10421048;28;20230;-84
2023/08/07 20:00:59;;;;;;;2.03;1.83;;;18.20;91.90;;;;;;10425760;28;20218;-81
2023/08/07 20:06:03;;;;;;;2.10;2.00;;;18.10;91.60;;;;;;10443702;28;20266;-84
2023/08/07 20:11:05;;;;;;;2.90;2.70;;;18.10;91.80;;;;;;10433112;28;20237;-84
2023/08/07 20:16:07;;;;;;;4.43;2.23;;;18.00;91.90;;;;;;10456213;28;20394;-83
2023/08/07 20:21:12;;;;;;;2.03;1.93;;;18.00;92.00;;;;;;10445334;28;20717;-84
2023/08/07 20:26:14;;;;;;;3.70;2.40;;;18.00;92.30;;;;;;10452336;28;20213;-84
2023/08/07 20:31:16;;;;;;;2.07;1.97;;;17.90;92.40;;;;;;10442029;28;20226;-85
2023/08/07 20:36:20;;;;;;;1.70;1.60;;;17.80;91.90;;;;;;10452214;28;20203;-85
2023/08/07 20:41:22;;;;;;;1.87;1.77;;;17.80;92.00;;;;;;10450917;28;20268;-84
2023/08/07 20:46:24;;;;;;;2.57;2.37;;;17.70;91.90;;;;;;10456571;28;20215;-84
2023/08/07 20:51:27;;;;;;;2.00;1.90;;;17.70;92.20;;;;;;10453173;28;20289;-84
2023/08/07 20:56:29;;;;;;;2.63;2.43;;;17.70;92.60;;;;;;10452707;28;20213;-84
2023/08/07 21:01:31;;;;;;;3.40;3.10;;;17.70;92.40;;;;;;10466486;28;20233;-84
2023/08/07 21:06:35;;;;;;;2.40;2.20;;;17.60;92.70;;;;;;10440965;28;20741;-85
2023/08/07 21:11:37;;;;;;;2.17;2.07;;;17.60;92.30;;;;;;10445251;28;20272;-82
2023/08/07 21:16:43;;;;;;;2.70;2.50;;;17.50;92.20;;;;;;10431482;28;20195;-84
2023/08/07 21:21:46;;;;;;;2.53;2.33;;;17.50;92.70;;;;;;10447251;28;20780;-84
2023/08/07 21:26:48;;;;;;;4.10;2.60;;;17.50;92.80;;;;;;10455614;28;20197;-85
2023/08/07 21:31:50;;;;;;;2.43;2.23;;;17.50;92.80;;;;;;10456906;28;20231;-84
2023/08/07 21:36:54;;;;;;;2.30;2.20;;;17.50;93.20;;;;;;10454577;28;20256;-85
2023/08/07 21:41:56;;;;;;;2.60;2.40;;;17.50;93.00;;;;;;10446649;28;20232;-83
2023/08/07 21:46:58;;;;;;;2.53;2.33;;;17.50;92.90;;;;;;10457660;28;20523;-83
2023/08/07 21:52:02;;;;;;;2.77;2.57;;;17.40;92.80;;;;;;10432298;28;20214;-83
2023/08/07 21:57:04;;;;;;;2.23;2.03;;;17.40;92.70;;;;;;10463667;28;20234;-84
2023/08/07 22:02:07;;;;;;;2.70;2.10;;;17.40;93.00;;;;;;10457665;28;20299;-84
2023/08/07 22:07:10;;;;;;;2.50;2.00;;;17.40;93.00;;;;;;10466993;28;20209;-84
2023/08/07 22:12:12;;;;;;;2.10;2.00;;;17.30;92.80;;;;;;10447299;28;20257;-84
2023/08/07 22:17:14;;;;;;;2.00;1.90;;;17.30;92.40;;;;;;10443801;28;20198;-83
2023/08/07 22:22:18;;;;;;;2.27;2.17;;;17.30;92.90;;;;;;10426862;28;20298;-83
2023/08/07 22:27:20;;;;;;;2.57;2.37;;;17.30;92.40;;;;;;10445525;28;20678;-84
2023/08/07 22:32:22;;;;;;;2.30;2.20;;;17.30;92.70;;;;;;10451055;22;20231;-80
2023/08/07 22:37:29;;;;;;;3.90;2.47;;;17.30;92.60;;;;;;10436678;28;20202;-80
2023/08/07 22:42:31;;;;;;;2.23;2.10;;;17.30;92.90;;;;;;10433340;28;20325;-81
2023/08/07 22:47:34;;;;;;;2.80;2.30;;;17.20;92.70;;;;;;10436817;28;20688;-81
2023/08/07 22:52:38;;;;;;;2.50;2.40;;;17.20;92.80;;;;;;10438151;28;20214;-80
2023/08/07 22:57:46;;;;;;;2.10;2.00;;;17.10;93.30;;;;;;10433810;28;20297;-81
2023/08/07 23:02:48;;;;;;;2.30;2.20;;;17.10;93.50;;;;;;10434513;28;20232;-80
2023/08/07 23:07:51;;;;;;;2.33;2.13;;;17.10;94.00;;;;;;10436901;28;20252;-80
2023/08/07 23:12:53;;;;;;;3.67;2.40;;;17.00;93.30;;;;;;10433536;28;20218;-80
2023/08/07 23:17:56;;;;;;;2.13;1.93;;;17.00;93.60;;;;;;10434313;28;20199;-80
2023/08/07 23:22:59;;;;;;;2.10;2.00;;;17.00;93.90;;;;;;10433011;28;20312;-80
2023/08/07 23:28:01;;;;;;;2.40;2.30;;;17.00;93.80;;;;;;10438186;28;20229;-80
2023/08/07 23:33:04;;;;;;;2.60;2.40;;;17.00;94.00;;;;;;10433630;28;20276;-80
2023/08/07 23:38:08;;;;;;;2.20;1.80;;;17.00;94.20;;;;;;10435756;28;20737;-80
2023/08/07 23:43:10;;;;;;;2.33;2.17;;;17.00;93.80;;;;;;10443331;28;20214;-80
2023/08/07 23:48:12;;;;;;;2.80;2.60;;;17.00;93.90;;;;;;10446025;28;20212;-80
2023/08/07 23:53:15;;;;;;;2.30;2.20;;;16.90;93.50;;;;;;10439687;28;20218;-80
2023/08/07 23:58:20;;;;;;;3.67;2.70;;;16.90;93.70;;;;;;10446561;28;20203;-80
